• Join FlightAware (Why Join?)
  • Login
  • US Flag 
05:33PM EST


 

Airport Tracker/Info


-or-


 

Live Flight TrackerFlight Track Log ✈ SKW6306 ✈ 24-Jun-2013 ✈ KDEN - CYXE

Flight Track Log - Related Links

Times and Time Zones

All times are in EDT time to prevent confusion due to time zone crossing. See the SKW6306 flight status page for this flight to view local times or setup timezone preferences in your user account.

Time Position Orientation Groundspeed Altitude Reporting Facility
EDT Latitude Longitude Course Direction KTS MPH feet Rate Location/Type
02:20PM 39.8667 -104.8000 346° North 218 251 7,600  Level Denver TRACON
02:21PM 39.9167 -104.8167 346° North 238 274 9,500 2,160 Climbing Denver TRACON
02:22PM 40.1946 -104.7800 347° North  Level FlightAware Approximate
02:22PM 39.9464 -104.8150 North 236 272 10,600  Level Denver Center
02:23PM 40.3103 -104.8148 347° North  Level FlightAware Approximate
02:23PM 40.0217 -104.8189 358° North 249 287 12,400  Level Denver Center
02:24PM 40.4254 -104.8529 346° North  Level FlightAware Approximate
02:24PM 40.0983 -104.8247 357° North 274 315 13,700  Level Denver Center
02:25PM 40.5406 -104.8902 348° North  Level FlightAware Approximate
02:25PM 40.1847 -104.8272 359° North 309 356 14,600  Level Denver Center
02:26PM 40.6564 -104.9243 346° North  Level FlightAware Approximate
02:26PM 40.2892 -104.8319 358° North 347 399 16,100  Level Denver Center
02:27PM 40.3856 -104.8361 358° North 347 399 17,600 1,380 Climbing Denver Center
02:28PM 40.4858 -104.8431 357° North 360 414 19,000 1,320 Climbing Denver Center
02:29PM 40.5931 -104.8647 351° North 362 417 20,400 1,140 Climbing Denver Center
02:30PM 40.6939 -104.8867 351° North 369 425 21,400 900 Climbing Denver Center
02:31PM 40.8006 -104.9064 352° North 370 426 22,300 840 Climbing Denver Center
02:32PM 40.9081 -104.9283 351° North 387 445 23,200 900 Climbing Denver Center
02:33PM 41.0169 -104.9500 351° North 396 456 24,200 1,020 Climbing Denver Center
02:34PM 41.1397 -104.9783 350° North 399 459 25,400 900 Climbing Denver Center
02:35PM 41.2453 -104.9975 352° North 400 460 26,100 540 Climbing Denver Center
02:36PM 41.3722 -105.0236 351° North 409 471 26,600 480 Climbing Denver Center
02:37PM 41.4822 -105.0447 352° North 414 476 27,100 480 Climbing Denver Center
02:38PM 41.5942 -105.0697 351° North 422 486 27,600 480 Climbing Denver Center
02:39PM 41.7256 -105.0986 351° North 425 489 28,100 480 Climbing Denver Center
02:40PM 41.8383 -105.1219 351° North 426 490 28,600 480 Climbing Denver Center
02:41PM 41.9700 -105.1497 351° North 427 491 29,200 480 Climbing Denver Center
02:42PM 42.0839 -105.1736 351° North 430 495 29,700 480 Climbing Denver Center
02:43PM 42.1964 -105.1975 351° North 427 491 30,200 480 Climbing Denver Center
02:44PM 42.3269 -105.2256 351° North 425 489 30,700 420 Climbing Denver Center
02:46PM 42.4397 -105.2500 351° North 426 490 31,200 480 Climbing Denver Center
02:47PM 42.5906 -105.2822 351° North 426 490 31,900 360 Climbing Denver Center
02:48PM 42.7047 -105.3092 350° North 430 495 32,000  Climbing Denver Center
02:49PM 42.8425 -105.3389 351° North 443 510 32,000  Level Denver Center
02:50PM 42.9639 -105.3642 351° North 456 525 32,000  Level Denver Center
02:51PM 43.0833 -105.3894 351° North 455 524 32,000  Level Denver Center
02:52PM 43.2222 -105.4197 351° North 452 520 32,000  Level Denver Center
02:53PM 43.3400 -105.4450 351° North 448 516 32,000  Level Denver Center
02:54PM 43.4781 -105.4750 351° North 449 517 32,000  Level Denver Center
02:55PM 43.5950 -105.5017 351° North 447 514 32,000  Level Denver Center
02:56PM 43.7114 -105.5281 351° North 444 511 32,000  Level Denver Center
02:57PM 43.8472 -105.5581 351° North 444 511 32,000  Level Denver Center
02:58PM 43.9644 -105.5856 350° North 444 511 32,000  Level Denver Center
02:59PM 44.1050 -105.6178 351° North 452 520 32,000  Level Denver Center
03:00PM 44.2253 -105.6467 350° North 455 524 32,000  Level Denver Center
03:01PM 44.3664 -105.6781 351° North 458 527 32,000  Level Denver Center
03:02PM 44.4489 -105.6964 351° North 461 531 32,000  Level Salt Lake Center
03:03PM 44.5908 -105.7300 350° North 463 533 32,000  Level Salt Lake Center
03:04PM 44.7125 -105.7575 351° North 463 533 32,000  Level Salt Lake Center
03:04PM 44.7728 -105.7703 351° North 463 533 32,000  Level Denver Center
03:05PM 44.9358 -105.8072 351° North 464 534 32,000  Level Denver Center
03:06PM 45.0572 -105.8350 351° North 463 533 32,000  Level Denver Center
03:07PM 45.1994 -105.8689 350° North 464 534 32,000  Level Denver Center
03:09PM 45.3214 -105.8989 350° North 464 534 32,000  Level Denver Center
03:10PM 45.4644 -105.9350 350° North 465 535 32,000  Level Denver Center
03:11PM 45.5867 -105.9636 351° North 466 536 32,000  Level Denver Center
03:12PM 45.7086 -105.9936 350° North 465 535 32,000  Level Denver Center
03:13PM 45.8922 -106.0364 351° North 463 533 32,000  Level Salt Lake Center
03:14PM 46.0186 -106.0656 351° North 462 532 32,000  Level Salt Lake Center
03:15PM 46.1450 -106.0953 351° North 461 531 32,000  Level Salt Lake Center
03:16PM 46.2733 -106.1272 350° North 462 532 32,000  Level Salt Lake Center
03:17PM 46.4014 -106.1575 351° North 464 534 32,000  Level Salt Lake Center
03:18PM 46.5306 -106.1900 350° North 466 536 32,000  Level Salt Lake Center
03:19PM 46.6858 -106.2292 350° North 469 540 32,000  Level Salt Lake Center
03:20PM 46.8153 -106.2633 350° North 470 541 32,000  Level Salt Lake Center
03:21PM 46.9461 -106.2958 350° North 472 543 32,000  Level Salt Lake Center
03:22PM 47.0764 -106.3292 350° North 474 545 32,000  Level Salt Lake Center
03:23PM 47.2075 -106.3633 350° North 475 547 32,000  Level Salt Lake Center
03:24PM 47.3400 -106.3972 350° North 479 551 32,000  Level Salt Lake Center
03:25PM 47.4703 -106.4303 350° North 478 550 32,000  Level Salt Lake Center
03:26PM 47.6258 -106.4711 350° North 474 545 32,000  Level Salt Lake Center
03:27PM 47.7553 -106.5044 350° North 473 544 32,000  Level Salt Lake Center
03:28PM 47.8850 -106.5375 350° North 474 545 32,000  Level Salt Lake Center
03:29PM 48.0144 -106.5714 350° North 472 543 32,000  Level Salt Lake Center
03:30PM 48.1458 -106.6061 350° North 475 547 32,000  Level Salt Lake Center
03:32PM 48.2736 -106.6522 346° North 474 545 32,000  Level Salt Lake Center
03:33PM 48.3969 -106.7164 341° North 471 542 32,000  Level Salt Lake Center
03:34PM 48.5453 -106.7889 342° North 469 540 32,000  Level Salt Lake Center
03:35PM 48.6694 -106.8503 342° North 469 540 32,000  Level Salt Lake Center
03:36PM 48.7925 -106.9111 342° North 467 537 32,000  Level Salt Lake Center
03:37PM 48.9000 -107.0000 331° Northwest 470 541 32,000  Level Winnipeg Center
03:38PM 49.0167 -107.0500 344° North 470 541 32,000  Level Winnipeg Center
03:39PM 49.1333 -107.1167 340° North 470 541 32,000  Level Winnipeg Center
03:40PM 49.2500 -107.1667 344° North 470 541 32,000  Level Winnipeg Center
03:41PM 49.3833 -107.1333 North 480 552 32,000  Level Winnipeg Center
03:42PM 49.5333 -107.1167 North 480 552 32,000  Level Winnipeg Center
03:43PM 49.6667 -107.1000 North 480 552 32,000  Level Winnipeg Center
03:44PM 49.7833 -107.0333 20° North 480 552 32,000  Level Winnipeg Center
03:45PM 49.9167 -107.0167 North 480 552 32,000  Level Winnipeg Center
03:46PM 50.0500 -106.9833 North 480 552 32,000  Level Winnipeg Center
03:47PM 50.1833 -106.9667 North 480 552 32,000  Level Winnipeg Center
03:48PM 50.3167 -106.9500 North 480 552 32,000  Level Winnipeg Center
03:50PM 50.5368 -106.9390 North  Level FlightAware Approximate
03:51PM 50.7000 -106.8333 North 470 541 32,000  Level Winnipeg Center
03:52PM 50.8333 -106.8167 North 470 541 31,800 -1,080 Descending Winnipeg Center
03:53PM 50.9667 -106.7667 13° North 470 541 29,900 -1,620 Descending Winnipeg Center
03:54PM 51.0833 -106.7333 10° North 470 541 28,600 -1,980 Descending Winnipeg Center
03:55PM 51.2167 -106.7167 North 430 495 26,000 -3,060 Descending Winnipeg Center
03:56PM 51.3333 -106.6833 10° North 430 495 22,500 -3,780 Descending Winnipeg Center
03:57PM 51.4500 -106.6500 10° North 430 495 18,500 -3,900 Descending Winnipeg Center
03:58PM 51.5500 -106.6167 12° North 420 483 14,800 -3,600 Descending Winnipeg Center
03:59PM 51.6833 -106.6000 North 400 460 11,300 -2,400 Descending Winnipeg Center
04:00PM 51.7667 -106.5833 North 360 414 10,000 -1,320 Descending Winnipeg Center
04:01PM 51.8500 -106.5500 14° North 300 345 8,700 -1,560 Descending Winnipeg Center
04:02PM 51.9167 -106.5333 North 280 322 6,900 -1,920 Descending Winnipeg Center
04:03PM 52.0000 -106.5333 360° North 280 322 4,900 -1,620 Descending Winnipeg Center
04:04PM 52.0667 -106.5167 North 270 311 3,700 -600 Descending Winnipeg Center
04:05PM 52.1167 -106.5333 348° North 210 242 3,700  Level Winnipeg Center